Time;durP1;ratioP1;P1;durP2;ratioP2;P2;SDS_P1;SDS_P2;PMS_P1;PMS_P2;Temp;Humidity;BMP_temperature;BMP_pressure;BME280_temperature;BME280_humidity;BME280_pressure;Samples;Min_cycle;Max_cycle;Signal;HPM_P1;HPM_P2
2021/05/13 00:01:47;;;;;;;0.60;0.60;;;;;;;19.88;48.42;100332.00;5008401;28;20735;-78
2021/05/13 00:04:16;;;;;;;0.40;0.40;;;;;;;19.89;48.43;100326.59;5020273;28;20226;-77
2021/05/13 00:06:41;;;;;;;1.08;0.63;;;;;;;19.88;48.50;100316.94;5027747;28;21819;-74
2021/05/13 00:09:12;;;;;;;0.57;0.57;;;;;;;19.87;48.40;100320.53;5000184;28;20151;-76
2021/05/13 00:11:42;;;;;;;0.65;0.65;;;;;;;19.91;48.06;100318.56;5015817;28;20041;-78
2021/05/13 00:14:09;;;;;;;1.15;0.68;;;;;;;19.90;48.52;100316.84;5003753;28;20032;-74
2021/05/13 00:16:36;;;;;;;0.75;0.68;;;;;;;19.90;48.57;100314.19;5016911;28;20044;-73
2021/05/13 00:19:07;;;;;;;0.70;0.70;;;;;;;19.91;48.28;100315.91;5014319;28;20042;-77
2021/05/13 00:21:35;;;;;;;0.70;0.70;;;;;;;19.91;48.15;100319.41;5033131;28;20068;-76
2021/05/13 00:24:00;;;;;;;0.77;0.75;;;;;;;19.91;48.24;100316.75;5028490;28;20049;-76
2021/05/13 00:26:38;;;;;;;0.57;0.57;;;;;;;19.90;48.44;100322.16;5015513;28;20047;-77
2021/05/13 00:29:15;;;;;;;0.75;0.75;;;;;;;19.93;48.21;100320.19;5003825;28;20448;-77
2021/05/13 00:31:42;;;;;;;0.60;0.60;;;;;;;19.90;48.12;100324.81;5021226;28;20731;-76
2021/05/13 00:34:09;;;;;;;0.50;0.50;;;;;;;19.91;48.19;100321.22;5022375;28;20037;-78
2021/05/13 00:36:38;;;;;;;2.63;1.20;;;;;;;19.91;48.29;100314.09;5015089;28;20075;-75
2021/05/13 00:39:09;;;;;;;0.50;0.50;;;;;;;19.92;48.18;100321.13;5021014;28;20041;-73
2021/05/13 00:41:35;;;;;;;0.60;0.60;;;;;;;19.92;48.10;100323.78;5000899;28;20048;-74
2021/05/13 00:44:01;;;;;;;1.98;0.88;;;;;;;19.91;48.25;100319.41;5008011;28;20501;-73
2021/05/13 00:46:29;;;;;;;0.85;0.85;;;;;;;19.91;48.33;100318.56;5011752;28;20045;-76
2021/05/13 00:49:02;;;;;;;1.55;0.50;;;;;;;19.93;48.46;100312.22;4996067;28;20040;-78
2021/05/13 00:51:27;;;;;;;1.05;0.75;;;;;;;19.92;47.99;100305.19;5022785;28;20071;-75
2021/05/13 00:53:55;;;;;;;0.82;0.82;;;;;;;19.92;48.24;100294.56;4998621;28;20279;-74
2021/05/13 00:56:22;;;;;;;0.47;0.47;;;;;;;19.90;48.02;100288.47;5023197;28;20124;-73
2021/05/13 00:58:50;;;;;;;1.15;0.90;;;;;;;19.92;48.13;100294.56;5001353;28;20051;-74
2021/05/13 01:01:17;;;;;;;1.30;0.68;;;;;;;19.94;48.09;100297.97;5006884;28;20045;-74
2021/05/13 01:03:44;;;;;;;0.60;0.52;;;;;;;19.91;48.07;100292.84;5012343;28;20593;-74
2021/05/13 01:06:12;;;;;;;0.50;0.50;;;;;;;19.92;47.91;100293.69;5021786;28;20399;-76
2021/05/13 01:08:38;;;;;;;1.08;0.50;;;;;;;19.89;47.86;100297.38;4993645;28;20399;-75
2021/05/13 01:11:04;;;;;;;0.70;0.63;;;;;;;19.91;47.82;100295.50;5014632;28;21731;-74
2021/05/13 01:13:33;;;;;;;0.63;0.63;;;;;;;19.92;48.09;100299.88;4997669;28;20033;-73
2021/05/13 01:16:11;;;;;;;0.65;0.60;;;;;;;19.94;48.00;100303.28;5014238;28;20605;-75
2021/05/13 01:18:38;;;;;;;0.77;0.40;;;;;;;19.92;47.85;100301.66;5005221;28;20048;-78
2021/05/13 01:21:04;;;;;;;0.63;0.63;;;;;;;19.92;47.96;100307.84;5011352;28;20043;-77
2021/05/13 01:23:30;;;;;;;0.93;0.50;;;;;;;19.92;48.00;100301.66;5016346;28;20045;-74
2021/05/13 01:25:56;;;;;;;0.47;0.40;;;;;;;19.90;48.04;100298.25;5009273;28;20046;-76
2021/05/13 01:28:27;;;;;;;0.73;0.52;;;;;;;19.93;47.99;100292.75;5020272;28;20666;-74
2021/05/13 01:30:56;;;;;;;1.38;0.55;;;;;;;19.95;48.06;100294.38;5010145;28;20054;-78
2021/05/13 01:33:25;;;;;;;0.95;0.85;;;;;;;19.94;47.76;100297.97;5014608;28;20052;-77
2021/05/13 01:35:52;;;;;;;1.33;0.88;;;;;;;19.92;48.18;100297.22;5031062;28;20037;-78
2021/05/13 01:38:22;;;;;;;0.43;0.43;;;;;;;19.93;48.10;100280.34;5009653;28;20684;-73
2021/05/13 01:40:54;;;;;;;1.08;0.80;;;;;;;19.93;47.92;100284.78;5016034;28;20036;-74
2021/05/13 01:43:22;;;;;;;0.65;0.52;;;;;;;19.95;47.97;100283.75;5009375;28;20099;-75
2021/05/13 01:45:48;;;;;;;1.05;0.70;;;;;;;19.95;47.61;100280.25;5016394;28;20033;-74
2021/05/13 01:48:14;;;;;;;1.38;0.70;;;;;;;19.95;47.89;100277.59;5009918;28;20049;-74
2021/05/13 01:50:42;;;;;;;0.75;0.75;;;;;;;19.95;48.00;100285.56;5014224;28;20041;-77
2021/05/13 01:53:09;;;;;;;1.90;0.50;;;;;;;19.96;48.09;100284.66;5019006;28;20045;-75
2021/05/13 01:55:36;;;;;;;0.50;0.40;;;;;;;19.95;47.82;100282.91;5009151;28;20645;-73
2021/05/13 01:58:03;;;;;;;0.82;0.63;;;;;;;19.94;47.93;100278.53;5018633;28;20091;-77
2021/05/13 02:00:30;;;;;;;0.40;0.40;;;;;;;19.92;47.70;100273.31;5027534;28;20037;-74
2021/05/13 02:02:55;;;;;;;0.57;0.57;;;;;;;19.94;47.84;100275.88;5019851;28;20083;-74
2021/05/13 02:05:23;;;;;;;0.60;0.55;;;;;;;19.92;47.79;100275.09;5010793;28;20119;-72
2021/05/13 02:07:49;;;;;;;0.40;0.40;;;;;;;19.92;47.96;100277.75;5021704;28;20041;-77
2021/05/13 02:10:17;;;;;;;0.73;0.60;;;;;;;19.94;47.75;100270.56;4996104;28;20084;-73
2021/05/13 02:12:43;;;;;;;0.60;0.60;;;;;;;19.94;47.82;100271.41;5018773;28;20041;-74
2021/05/13 02:15:12;;;;;;;1.33;0.68;;;;;;;19.97;47.95;100268.63;5014871;28;20041;-73
2021/05/13 02:17:39;;;;;;;0.85;0.55;;;;;;;19.98;47.67;100272.13;5014751;28;21136;-73
2021/05/13 02:20:08;;;;;;;0.80;0.80;;;;;;;19.97;47.77;100271.28;5015868;28;20053;-73
2021/05/13 02:22:33;;;;;;;2.13;1.00;;;;;;;19.96;47.80;100266.88;5026471;28;20048;-75
2021/05/13 02:24:59;;;;;;;1.25;0.68;;;;;;;19.94;47.74;100251.97;5013521;28;20690;-77
2021/05/13 02:27:25;;;;;;;2.22;0.77;;;;;;;19.94;48.00;100260.78;5025097;28;20161;-75
2021/05/13 02:29:50;;;;;;;0.65;0.65;;;;;;;19.97;47.76;100258.00;5014359;28;20052;-76
2021/05/13 02:32:16;;;;;;;1.40;0.73;;;;;;;19.98;47.60;100259.69;5006838;28;20103;-77
2021/05/13 02:34:42;;;;;;;0.70;0.70;;;;;;;19.95;47.73;100254.53;4997697;28;20037;-73
2021/05/13 02:37:07;;;;;;;0.93;0.93;;;;;;;19.96;47.58;100261.56;5011715;28;20041;-73
2021/05/13 02:39:34;;;;;;;1.15;0.60;;;;;;;19.96;47.61;100255.41;5010809;28;21878;-73
2021/05/13 02:42:00;;;;;;;1.33;0.85;;;;;;;19.96;47.81;100256.25;5012662;28;20050;-73
2021/05/13 02:44:25;;;;;;;0.50;0.50;;;;;;;19.93;47.42;100248.47;5012573;28;20052;-76
2021/05/13 02:46:51;;;;;;;0.80;0.80;;;;;;;19.96;47.63;100253.59;5019978;28;20056;-73
2021/05/13 02:49:17;;;;;;;0.65;0.57;;;;;;;19.95;47.64;100249.22;5008646;28;20123;-77
2021/05/13 02:51:43;;;;;;;0.65;0.60;;;;;;;19.96;47.47;100255.41;5013096;28;20041;-76
2021/05/13 02:54:08;;;;;;;0.50;0.50;;;;;;;19.96;47.69;100250.09;5007350;28;20839;-73
2021/05/13 02:56:34;;;;;;;0.70;0.70;;;;;;;19.99;47.68;100241.97;5016028;28;20286;-76
2021/05/13 02:59:00;;;;;;;1.33;0.60;;;;;;;19.98;47.27;100243.72;4997247;28;20067;-78
2021/05/13 03:01:29;;;;;;;0.40;0.40;;;;;;;19.98;47.56;100240.22;5020860;28;20574;-73
2021/05/13 03:03:57;;;;;;;0.68;0.68;;;;;;;19.96;47.68;100248.28;5010104;28;20041;-74
2021/05/13 03:06:25;;;;;;;0.98;0.50;;;;;;;19.96;47.64;100242.97;5008936;28;20666;-75
2021/05/13 03:08:55;;;;;;;0.30;0.30;;;;;;;19.98;47.68;100248.19;5013186;28;20132;-73
2021/05/13 03:11:23;;;;;;;1.08;0.80;;;;;;;19.97;47.60;100249.13;5000284;28;20508;-78
2021/05/13 03:13:52;;;;;;;0.50;0.50;;;;;;;19.94;47.37;100242.19;5000908;28;20049;-72
2021/05/13 03:16:18;;;;;;;0.73;0.45;;;;;;;19.98;47.61;100242.88;5009230;28;20056;-73
2021/05/13 03:18:49;;;;;;;0.55;0.30;;;;;;;19.96;47.34;100242.97;5030439;28;20076;-78
2021/05/13 03:21:26;;;;;;;1.70;1.05;;;;;;;19.96;47.58;100237.66;5010863;28;20175;-76
2021/05/13 03:24:01;;;;;;;0.70;0.70;;;;;;;19.96;47.38;100239.47;5010381;28;20049;-75
2021/05/13 03:27:15;;;;;;;1.35;0.70;;;;;;;19.97;47.55;100227.88;5017718;28;20045;-76
2021/05/13 03:29:17;;;;;;;2.05;0.80;;;;;;;19.98;47.38;100229.59;5005141;28;20053;-72
2021/05/13 03:31:43;;;;;;;0.77;0.77;;;;;;;19.97;47.51;100233.19;5013042;28;20444;-76
2021/05/13 03:34:09;;;;;;;0.57;0.50;;;;;;;19.96;47.58;100231.50;5023680;28;20151;-75
2021/05/13 03:36:35;;;;;;;1.00;0.60;;;;;;;19.95;47.67;100224.47;5003901;28;20049;-73
2021/05/13 03:39:07;;;;;;;0.80;0.60;;;;;;;19.96;47.52;100223.53;4997762;28;20107;-75
2021/05/13 03:41:33;;;;;;;0.50;0.50;;;;;;;19.97;47.35;100225.22;5012579;28;20072;-78
2021/05/13 03:43:59;;;;;;;0.38;0.38;;;;;;;19.96;47.36;100221.72;5028226;28;20491;-76
2021/05/13 03:46:25;;;;;;;0.45;0.40;;;;;;;19.98;47.49;100233.09;5010986;28;20043;-73
2021/05/13 03:48:51;;;;;;;0.65;0.63;;;;;;;19.94;47.67;100220.09;4997258;28;20051;-77
2021/05/13 03:51:16;;;;;;;1.58;0.82;;;;;;;19.97;47.43;100223.44;5017286;28;20041;-75
2021/05/13 03:53:43;;;;;;;0.95;0.45;;;;;;;19.95;47.56;100222.66;4996884;28;20499;-74
2021/05/13 03:56:10;;;;;;;2.22;1.38;;;;;;;19.95;47.55;100212.03;5007076;28;20069;-72
2021/05/13 03:58:48;;;;;;;1.45;0.60;;;;;;;19.98;47.33;100211.00;4978560;28;20034;-78
2021/05/13 04:01:43;;;;;;;1.95;1.08;;;;;;;19.96;47.35;100216.41;5022930;28;20128;-73
2021/05/13 04:04:10;;;;;;;0.85;0.50;;;;;;;19.97;47.48;100210.16;5015023;28;20112;-72
2021/05/13 04:06:35;;;;;;;1.13;0.57;;;;;;;19.95;47.71;100203.22;4999437;28;20050;-76
2021/05/13 04:09:09;;;;;;;1.10;0.50;;;;;;;19.96;47.30;100202.28;5007750;28;20103;-75
2021/05/13 04:11:39;;;;;;;1.08;0.70;;;;;;;19.94;47.55;100197.03;5015877;28;20486;-76
2021/05/13 04:14:06;;;;;;;1.55;0.80;;;;;;;19.96;47.31;100200.47;5000867;28;20074;-76
2021/05/13 04:16:36;;;;;;;0.98;0.80;;;;;;;19.97;47.18;100198.66;5027764;28;20083;-75
2021/05/13 04:19:03;;;;;;;1.23;0.60;;;;;;;19.96;47.38;100189.84;4984748;28;20060;-75
2021/05/13 04:21:29;;;;;;;0.50;0.50;;;;;;;19.97;47.35;100182.72;5014684;28;20503;-75
2021/05/13 04:23:55;;;;;;;1.17;0.60;;;;;;;19.95;47.28;100182.81;4998169;28;20173;-74
2021/05/13 04:26:21;;;;;;;0.35;0.35;;;;;;;19.97;47.35;100182.72;5012465;28;20116;-75
2021/05/13 04:28:47;;;;;;;1.60;0.60;;;;;;;19.97;47.38;100178.28;5005912;28;20053;-75
2021/05/13 04:31:13;;;;;;;0.82;0.60;;;;;;;19.97;47.29;100172.97;4996350;28;20067;-77
2021/05/13 04:33:39;;;;;;;2.65;0.50;;;;;;;19.96;47.15;100181.03;5028260;28;20452;-72
2021/05/13 04:36:06;;;;;;;0.90;0.43;;;;;;;19.97;47.39;100172.97;5021780;28;20041;-77
2021/05/13 04:38:32;;;;;;;0.65;0.60;;;;;;;19.98;47.11;100173.81;5011397;28;20134;-74
2021/05/13 04:40:57;;;;;;;1.48;0.88;;;;;;;19.95;47.19;100174.84;5009553;28;20049;-78
2021/05/13 04:43:23;;;;;;;0.70;0.70;;;;;;;20.00;47.11;100174.59;5012945;28;20107;-75
2021/05/13 04:45:49;;;;;;;0.70;0.70;;;;;;;19.99;47.13;100175.53;5024236;28;20638;-72
2021/05/13 04:48:19;;;;;;;1.95;0.60;;;;;;;19.98;47.01;100168.50;5014208;28;20049;-75
2021/05/13 04:50:48;;;;;;;0.85;0.40;;;;;;;19.97;47.20;100167.66;5012728;28;20395;-80
2021/05/13 04:53:14;;;;;;;1.38;0.82;;;;;;;19.96;47.00;100162.44;5016835;28;20053;-76
2021/05/13 04:55:41;;;;;;;0.73;0.50;;;;;;;19.97;47.12;100159.69;5012344;28;20045;-74
2021/05/13 04:58:08;;;;;;;0.60;0.57;;;;;;;19.96;47.13;100151.81;5025595;28;20068;-79
2021/05/13 05:00:35;;;;;;;0.95;0.60;;;;;;;19.96;47.03;100155.31;5021596;28;20068;-77
2021/05/13 05:03:01;;;;;;;0.80;0.60;;;;;;;19.96;47.20;100151.81;5016615;28;20076;-74
2021/05/13 05:05:27;;;;;;;1.08;0.88;;;;;;;19.95;46.91;100150.09;5006395;28;20051;-73
2021/05/13 05:07:53;;;;;;;1.10;0.63;;;;;;;19.95;47.05;100142.97;5010080;28;20507;-77
2021/05/13 05:10:19;;;;;;;1.80;0.65;;;;;;;19.94;47.16;100146.56;5014638;28;20079;-78
2021/05/13 05:12:45;;;;;;;0.57;0.55;;;;;;;19.92;47.18;100142.28;5031933;28;20483;-73
2021/05/13 05:15:11;;;;;;;1.63;0.65;;;;;;;19.94;47.06;100149.22;5009721;28;20052;-74
2021/05/13 05:17:37;;;;;;;0.73;0.55;;;;;;;19.94;46.96;100143.06;5017417;28;20060;-79
2021/05/13 05:20:05;;;;;;;1.20;0.52;;;;;;;19.91;46.98;100149.41;5010308;28;20045;-73
2021/05/13 05:22:32;;;;;;;2.22;0.70;;;;;;;19.89;46.96;100139.81;5015275;28;20764;-73
2021/05/13 05:24:57;;;;;;;0.88;0.50;;;;;;;19.92;47.05;100148.47;5009757;28;20056;-74
2021/05/13 05:27:23;;;;;;;1.75;1.15;;;;;;;19.91;47.02;100146.75;5014919;28;20099;-74
2021/05/13 05:29:48;;;;;;;0.52;0.52;;;;;;;19.91;47.14;100149.41;5014767;28;20041;-75
2021/05/13 05:32:15;;;;;;;1.85;0.70;;;;;;;19.91;46.78;100144.09;5006786;28;20947;-72
2021/05/13 05:34:40;;;;;;;1.27;0.50;;;;;;;19.91;46.56;100137.94;5014604;28;20053;-74
2021/05/13 05:37:06;;;;;;;0.65;0.50;;;;;;;19.91;46.74;100136.13;5009472;28;20921;-73
2021/05/13 05:39:32;;;;;;;1.48;0.60;;;;;;;19.92;46.75;100127.22;5028146;28;20049;-76
2021/05/13 05:41:57;;;;;;;1.88;1.05;;;;;;;19.90;46.70;100133.56;4994684;28;20041;-75
2021/05/13 05:44:24;;;;;;;1.92;0.68;;;;;;;19.88;46.69;100128.34;5012644;28;20037;-74
2021/05/13 05:46:50;;;;;;;2.60;0.73;;;;;;;19.89;46.79;100127.38;5015073;28;20045;-72
2021/05/13 05:49:17;;;;;;;0.40;0.40;;;;;;;19.88;46.67;100130.13;5009375;28;21049;-73
2021/05/13 05:51:43;;;;;;;0.77;0.60;;;;;;;19.88;46.68;100131.00;5013274;28;20040;-74
2021/05/13 05:54:09;;;;;;;0.98;0.73;;;;;;;19.90;46.73;100130.91;5009311;28;20033;-73
2021/05/13 05:56:35;;;;;;;1.52;0.80;;;;;;;19.88;46.85;100131.00;5015339;28;21538;-73
2021/05/13 05:59:02;;;;;;;1.77;0.65;;;;;;;19.90;46.56;100125.59;5010461;28;20049;-78
2021/05/13 06:01:27;;;;;;;1.13;0.77;;;;;;;19.91;46.65;100124.66;5014084;28;20049;-72
2021/05/13 06:03:54;;;;;;;1.20;0.73;;;;;;;19.92;46.67;100121.03;5013943;28;20120;-75
2021/05/13 06:06:19;;;;;;;2.78;1.08;;;;;;;19.92;46.29;100119.25;5001100;28;20088;-75
2021/05/13 06:08:45;;;;;;;1.98;0.75;;;;;;;19.93;46.63;100120.09;5018263;28;20037;-77
2021/05/13 06:11:11;;;;;;;1.33;0.60;;;;;;;19.94;46.36;100116.50;5010261;28;21925;-78
2021/05/13 06:13:37;;;;;;;2.65;0.50;;;;;;;19.91;46.51;100119.34;5015715;28;20830;-79
2021/05/13 06:16:03;;;;;;;1.17;0.60;;;;;;;19.91;46.25;100122.00;5010192;28;20100;-77
2021/05/13 06:18:28;;;;;;;0.98;0.50;;;;;;;19.87;46.29;100113.34;5028565;28;20057;-75
2021/05/13 06:20:56;;;;;;;1.65;0.80;;;;;;;19.85;46.42;100125.84;5018685;28;20049;-81
2021/05/13 06:23:22;;;;;;;1.48;0.68;;;;;;;19.91;46.18;100119.34;5013841;28;21335;-73
2021/05/13 06:25:48;;;;;;;0.85;0.30;;;;;;;19.88;46.10;100117.72;5015713;28;20045;-76
2021/05/13 06:28:13;;;;;;;1.40;0.50;;;;;;;19.91;46.13;100114.03;5011016;28;20049;-74
2021/05/13 06:30:41;;;;;;;0.85;0.85;;;;;;;19.89;46.02;100115.91;5029933;28;20395;-75
2021/05/13 06:33:07;;;;;;;2.42;1.15;;;;;;;19.86;45.95;100114.28;5015161;28;20040;-75
2021/05/13 06:35:35;;;;;;;0.90;0.70;;;;;;;19.88;46.02;100114.19;5012621;28;20688;-76
2021/05/13 06:38:00;;;;;;;1.65;0.55;;;;;;;19.86;46.23;100119.59;5010443;28;20049;-76
2021/05/13 06:40:26;;;;;;;4.10;1.65;;;;;;;19.86;46.27;100108.97;5012377;28;20128;-76
2021/05/13 06:42:52;;;;;;;0.90;0.70;;;;;;;19.86;46.27;100113.44;5013937;28;20063;-75
2021/05/13 06:45:18;;;;;;;3.15;0.70;;;;;;;19.86;46.15;100108.13;5006570;28;20056;-73
2021/05/13 06:47:44;;;;;;;2.47;0.82;;;;;;;19.88;46.10;100112.41;5011964;28;20590;-76
2021/05/13 06:50:10;;;;;;;0.65;0.63;;;;;;;19.89;46.04;100106.13;5008258;28;20040;-74
2021/05/13 06:52:37;;;;;;;1.98;0.47;;;;;;;19.85;46.13;100103.75;5028049;28;20144;-74
2021/05/13 06:55:04;;;;;;;0.47;0.45;;;;;;;19.84;46.33;100108.19;5012406;28;20091;-72
2021/05/13 06:57:30;;;;;;;1.30;0.50;;;;;;;19.84;46.27;100108.19;5027020;28;20042;-72
2021/05/13 06:59:56;;;;;;;1.35;0.50;;;;;;;19.83;46.17;100109.16;5013685;28;20044;-73
2021/05/13 07:02:22;;;;;;;1.73;0.30;;;;;;;19.81;46.28;100103.88;5005940;28;20162;-75
2021/05/13 07:04:48;;;;;;;1.05;0.50;;;;;;;19.84;45.99;100102.88;5012573;28;20956;-75
2021/05/13 07:07:13;;;;;;;2.00;0.63;;;;;;;19.87;45.44;100107.16;5009511;28;20095;-75
2021/05/13 07:09:39;;;;;;;3.22;0.77;;;;;;;19.79;45.97;100118.16;5011687;28;20056;-73
2021/05/13 07:12:05;;;;;;;0.90;0.40;;;;;;;19.81;45.75;100109.19;5011120;28;20692;-73
2021/05/13 07:14:31;;;;;;;2.10;0.50;;;;;;;19.83;45.98;100109.16;5012435;28;20156;-78
2021/05/13 07:16:58;;;;;;;0.88;0.60;;;;;;;19.82;45.91;100108.25;5003447;28;20147;-73
2021/05/13 07:19:23;;;;;;;0.98;0.55;;;;;;;19.82;46.13;100102.97;5006347;28;20057;-76
2021/05/13 07:21:49;;;;;;;1.00;0.50;;;;;;;19.82;45.84;100110.09;5027098;28;20124;-75
2021/05/13 07:24:15;;;;;;;0.77;0.50;;;;;;;19.82;46.06;100110.09;5008633;28;20077;-75
2021/05/13 07:26:40;;;;;;;1.45;0.50;;;;;;;19.80;45.83;100107.47;5003322;28;20095;-75
2021/05/13 07:29:08;;;;;;;1.50;0.73;;;;;;;19.81;46.05;100103.03;5007652;28;20675;-74
2021/05/13 07:31:33;;;;;;;1.48;0.68;;;;;;;19.82;45.91;100110.09;5019570;28;20076;-76
2021/05/13 07:33:59;;;;;;;0.75;0.50;;;;;;;19.81;45.64;100105.66;5012998;28;20053;-72
2021/05/13 07:36:24;;;;;;;0.47;0.25;;;;;;;19.81;45.82;100098.56;5023390;28;20542;-74
2021/05/13 07:38:50;;;;;;;1.75;0.50;;;;;;;19.79;45.71;100100.44;5011220;28;20099;-73
2021/05/13 07:41:16;;;;;;;1.05;0.40;;;;;;;19.83;45.63;100095.88;5007650;28;20049;-77
2021/05/13 07:43:43;;;;;;;1.63;0.60;;;;;;;19.83;45.73;100102.03;5013309;28;20048;-73
2021/05/13 07:46:10;;;;;;;3.08;0.20;;;;;;;19.87;45.70;100104.50;5024554;28;20037;-75
2021/05/13 07:48:35;;;;;;;2.40;0.40;;;;;;;19.85;45.89;100106.41;5010689;28;20080;-76
2021/05/13 07:51:05;;;;;;;2.50;0.68;;;;;;;19.85;45.89;100103.75;5021633;28;20045;-78
2021/05/13 07:53:30;;;;;;;0.73;0.30;;;;;;;19.84;45.60;100100.22;5018424;28;20045;-75
2021/05/13 07:55:57;;;;;;;1.25;0.30;;;;;;;19.83;45.28;100104.69;5017316;28;20045;-74
2021/05/13 07:58:23;;;;;;;0.75;0.60;;;;;;;19.84;45.52;100102.88;5023304;28;20558;-75
2021/05/13 08:00:49;;;;;;;0.70;0.20;;;;;;;19.85;45.54;100106.41;5027002;28;20041;-76
2021/05/13 08:03:15;;;;;;;0.38;0.20;;;;;;;19.82;45.61;100105.63;5007147;28;20050;-73
2021/05/13 08:05:40;;;;;;;1.02;0.63;;;;;;;19.85;45.43;100107.25;5011626;28;20402;-78
2021/05/13 08:08:06;;;;;;;1.00;0.50;;;;;;;19.83;45.70;100103.84;5012112;28;20040;-76
2021/05/13 08:10:32;;;;;;;0.75;0.20;;;;;;;19.82;45.67;100104.75;5012018;28;20077;-73
2021/05/13 08:12:58;;;;;;;1.05;0.17;;;;;;;19.86;45.68;100108.13;5019895;28;20128;-74
2021/05/13 08:15:24;;;;;;;3.60;0.70;;;;;;;19.83;45.65;100107.34;5006601;28;20041;-73
2021/05/13 08:17:50;;;;;;;1.35;0.40;;;;;;;19.83;45.31;100102.03;5014109;28;20107;-74
2021/05/13 08:20:17;;;;;;;0.40;0.30;;;;;;;19.83;45.37;100109.16;5013359;28;21136;-76
2021/05/13 08:22:45;;;;;;;1.67;0.35;;;;;;;19.95;44.87;100102.28;4994918;28;20053;-77
2021/05/13 08:25:14;;;;;;;0.30;0.30;;;;;;;20.03;44.85;100102.69;5010624;28;24261;-77
2021/05/13 08:27:40;;;;;;;2.08;0.45;;;;;;;20.09;44.87;100096.16;5012681;28;20525;-78
2021/05/13 08:30:08;;;;;;;1.75;0.63;;;;;;;20.23;44.74;100098.84;5011548;28;20036;-76
2021/05/13 08:32:34;;;;;;;1.00;0.68;;;;;;;20.29;44.18;100095.84;5015766;28;20053;-75
2021/05/13 08:35:00;;;;;;;2.30;0.38;;;;;;;20.16;44.71;100093.06;5006209;28;23218;-75
2021/05/13 08:37:26;;;;;;;1.35;0.20;;;;;;;20.15;44.69;100091.38;5011539;28;20048;-75
2021/05/13 08:39:52;;;;;;;0.55;0.25;;;;;;;20.17;44.44;100100.09;5007134;28;20069;-76
2021/05/13 08:42:17;;;;;;;0.70;0.30;;;;;;;20.31;44.19;100093.97;5026239;28;20482;-74
2021/05/13 08:44:44;;;;;;;2.45;0.32;;;;;;;20.20;44.53;100092.91;5030714;28;20048;-76
2021/05/13 08:47:10;;;;;;;1.05;0.30;;;;;;;20.20;44.71;100082.25;5016440;28;20052;-75
2021/05/13 08:49:38;;;;;;;2.33;0.50;;;;;;;20.20;44.42;100079.59;5008721;28;20045;-78
2021/05/13 08:52:08;;;;;;;1.45;0.40;;;;;;;20.39;42.84;100087.34;5014908;28;20052;-76
2021/05/13 08:54:34;;;;;;;1.98;0.35;;;;;;;20.31;43.99;100083.34;5017122;28;20507;-76
2021/05/13 08:57:00;;;;;;;1.95;0.40;;;;;;;20.22;44.58;100085.66;5014619;28;20123;-75
2021/05/13 08:59:27;;;;;;;1.25;0.20;;;;;;;20.29;43.88;100081.72;5009191;28;20049;-74
2021/05/13 09:01:58;;;;;;;0.90;0.30;;;;;;;20.24;43.61;100083.78;5015465;28;20486;-73
2021/05/13 09:04:37;;;;;;;1.33;0.60;;;;;;;20.21;44.27;100081.28;5022307;28;20667;-74
2021/05/13 09:07:19;;;;;;;1.17;0.38;;;;;;;20.26;44.13;100084.53;5014253;28;20119;-74
2021/05/13 09:10:08;;;;;;;0.85;0.32;;;;;;;20.35;44.33;100077.84;5021454;28;20365;-73
2021/05/13 09:12:39;;;;;;;0.50;0.20;;;;;;;20.13;43.10;100071.97;5021957;28;20037;-75
2021/05/13 09:15:21;;;;;;;3.40;0.35;;;;;;;18.09;40.53;100072.22;5016433;28;20556;-75
2021/05/13 09:18:11;;;;;;;1.80;0.60;;;;;;;17.58;41.65;100082.56;5007541;28;20484;-74
2021/05/13 09:20:39;;;;;;;1.95;0.30;;;;;;;17.27;42.37;100075.22;5016065;28;20045;-74
2021/05/13 09:23:26;;;;;;;1.40;0.35;;;;;;;17.11;42.38;100072.44;5014841;28;20564;-74
2021/05/13 09:26:16;;;;;;;2.40;0.68;;;;;;;16.98;42.93;100077.41;5020281;28;20080;-74
2021/05/13 09:29:10;;;;;;;3.95;0.60;;;;;;;17.11;42.59;100072.44;5013576;28;20050;-73
2021/05/13 09:31:42;;;;;;;1.00;0.40;;;;;;;17.02;42.02;100069.25;5014099;28;20045;-73
2021/05/13 09:34:11;;;;;;;1.20;0.40;;;;;;;17.03;42.69;100070.13;5008763;28;20547;-74
2021/05/13 09:36:38;;;;;;;1.48;0.47;;;;;;;16.94;42.54;100065.25;5001439;28;20127;-75
2021/05/13 09:39:24;;;;;;;0.90;0.30;;;;;;;16.86;42.72;100068.22;5009035;28;20060;-74
2021/05/13 09:42:05;;;;;;;1.52;0.52;;;;;;;16.91;43.04;100066.25;4996868;28;20399;-75
2021/05/13 09:44:36;;;;;;;1.05;0.25;;;;;;;17.12;42.42;100071.50;5008386;28;20045;-74
2021/05/13 09:47:36;;;;;;;1.55;0.40;;;;;;;17.20;42.30;100066.72;5019463;28;21138;-73
2021/05/13 09:50:10;;;;;;;1.65;0.40;;;;;;;16.92;42.47;100067.09;4991910;28;20110;-74
2021/05/13 09:52:52;;;;;;;1.23;0.40;;;;;;;16.87;43.01;100054.91;5027766;28;20044;-75
2021/05/13 09:55:31;;;;;;;2.17;0.43;;;;;;;17.03;42.90;100057.75;5005520;28;20124;-73
2021/05/13 09:58:06;;;;;;;1.88;0.57;;;;;;;16.90;42.68;100063.66;5005414;28;20041;-74
2021/05/13 10:00:49;;;;;;;1.23;0.55;;;;;;;17.01;42.00;100056.09;5012584;28;20045;-74
2021/05/13 10:03:21;;;;;;;1.90;0.52;;;;;;;16.95;41.07;100057.25;5017401;28;20041;-75
2021/05/13 10:05:49;;;;;;;1.60;0.25;;;;;;;17.02;41.29;100053.38;5018805;28;20123;-74
2021/05/13 10:08:16;;;;;;;2.42;0.55;;;;;;;17.05;41.63;100054.19;5006561;28;20045;-74
2021/05/13 10:10:43;;;;;;;1.73;0.47;;;;;;;17.15;41.89;100052.84;5012954;28;20389;-74
2021/05/13 10:13:10;;;;;;;3.22;0.70;;;;;;;17.15;42.85;100052.84;5009692;28;20163;-73
2021/05/13 10:15:41;;;;;;;2.40;0.73;;;;;;;17.14;43.43;100049.34;5011306;28;20152;-73
2021/05/13 10:18:36;;;;;;;3.55;0.60;;;;;;;17.22;43.01;100048.97;5025605;28;20551;-74
2021/05/13 10:21:11;;;;;;;5.25;0.70;;;;;;;17.15;42.94;100042.25;5017175;28;20040;-74
2021/05/13 10:23:37;;;;;;;1.00;0.52;;;;;;;16.95;43.19;100045.84;4991337;28;20037;-74
2021/05/13 10:26:04;;;;;;;2.10;0.75;;;;;;;16.90;43.85;100053.06;5028197;28;20048;-74
2021/05/13 10:28:32;;;;;;;2.58;0.90;;;;;;;16.97;43.67;100038.66;4999672;28;20040;-73
2021/05/13 10:31:06;;;;;;;3.20;0.68;;;;;;;16.91;43.90;100034.53;5023427;28;20054;-75
2021/05/13 10:33:50;;;;;;;2.00;0.50;;;;;;;16.94;44.41;100038.81;5011311;28;20045;-73
2021/05/13 10:36:18;;;;;;;2.75;0.57;;;;;;;17.06;43.73;100038.25;5010268;28;20070;-75
2021/05/13 10:38:51;;;;;;;1.92;0.60;;;;;;;16.97;44.18;100030.72;5010593;28;20152;-73
2021/05/13 10:41:28;;;;;;;1.53;0.50;;;;;;;17.29;43.64;100028.41;5005627;28;20979;-77
2021/05/13 10:44:18;;;;;;;1.10;0.50;;;;;;;17.37;43.52;100028.88;5005520;28;20296;-76
2021/05/13 10:46:55;;;;;;;2.63;1.00;;;;;;;17.38;43.75;100032.38;5006020;28;20103;-75
2021/05/13 10:49:23;;;;;;;2.10;0.50;;;;;;;17.53;43.12;100026.38;5002300;28;20390;-74
2021/05/13 10:52:34;;;;;;;0.70;0.43;;;;;;;17.64;43.23;100024.06;5023761;28;21232;-74
2021/05/13 10:55:04;;;;;;;2.55;1.05;;;;;;;17.62;42.30;100030.38;5011190;28;20049;-75
2021/05/13 10:57:50;;;;;;;1.40;0.50;;;;;;;17.82;41.55;100019.66;5007915;28;20203;-78
2021/05/13 11:00:16;;;;;;;2.45;0.52;;;;;;;17.78;39.49;100019.88;5026309;28;20098;-78
2021/05/13 11:02:44;;;;;;;3.13;0.88;;;;;;;17.76;39.73;100019.13;5007939;28;20037;-77
2021/05/13 11:05:29;;;;;;;1.58;1.00;;;;;;;17.66;41.27;100026.63;5018295;28;20048;-79
2021/05/13 11:07:56;;;;;;;1.95;0.70;;;;;;;19.06;44.68;100018.66;5014280;28;20094;-75
2021/05/13 11:10:48;;;;;;;4.38;1.00;;;;;;;18.39;39.25;100021.25;5009021;28;20045;-77
2021/05/13 11:13:18;;;;;;;2.95;0.85;;;;;;;18.23;38.97;100015.06;5015923;28;20061;-74
2021/05/13 11:15:47;;;;;;;1.65;0.50;;;;;;;18.04;38.19;100012.47;4990805;28;20045;-78
2021/05/13 11:18:14;;;;;;;2.75;0.65;;;;;;;17.92;38.47;100013.91;5016399;28;20060;-78
2021/05/13 11:20:51;;;;;;;2.97;1.40;;;;;;;18.07;38.25;100013.19;5005854;28;20533;-76
2021/05/13 11:23:16;;;;;;;2.17;0.80;;;;;;;17.99;38.51;100004.75;5012363;28;20497;-80
2021/05/13 11:25:51;;;;;;;4.25;1.13;;;;;;;18.19;37.99;100015.19;5010111;28;20051;-77
2021/05/13 11:28:18;;;;;;;1.40;0.70;;;;;;;18.43;37.94;100012.22;5007980;28;20041;-78
2021/05/13 11:30:45;;;;;;;2.08;0.77;;;;;;;18.45;38.48;100010.34;5025273;28;20049;-75
2021/05/13 11:33:10;;;;;;;3.80;0.70;;;;;;;18.64;37.49;100004.94;5009841;28;20057;-77